Time;durP1;ratioP1;P1;durP2;ratioP2;P2;SDS_P1;SDS_P2;PMS_P1;PMS_P2;Temp;Humidity;BMP_temperature;BMP_pressure;BME280_temperature;BME280_humidity;BME280_pressure;Samples;Min_cycle;Max_cycle;Signal;HPM_P1;HPM_P2
2022/07/19 00:01:33;;;;;;;14.35;7.15;;;21.90;66.80;;;;;;4971501;28;20018;-72
2022/07/19 00:03:59;;;;;;;9.98;7.47;;;21.90;67.00;;;;;;4992878;28;20074;-72
2022/07/19 00:06:24;;;;;;;11.18;7.43;;;21.90;67.20;;;;;;4991785;28;20026;-74
2022/07/19 00:08:51;;;;;;;9.43;6.78;;;21.80;67.60;;;;;;4992464;28;20442;-73
2022/07/19 00:11:16;;;;;;;8.43;6.32;;;21.80;67.60;;;;;;4991742;28;20030;-74
2022/07/19 00:13:42;;;;;;;9.18;5.88;;;21.80;67.30;;;;;;4991878;28;20456;-74
2022/07/19 00:16:07;;;;;;;11.77;6.80;;;21.70;67.30;;;;;;4990682;28;20074;-74
2022/07/19 00:18:33;;;;;;;10.18;6.15;;;21.70;67.30;;;;;;4992431;28;20034;-74
2022/07/19 00:20:59;;;;;;;9.40;5.93;;;21.70;67.70;;;;;;4992410;28;20034;-72
2022/07/19 00:23:24;;;;;;;9.43;6.30;;;21.70;67.40;;;;;;4991337;28;20129;-74
2022/07/19 00:25:50;;;;;;;8.85;6.85;;;21.60;67.70;;;;;;4990845;28;20193;-73
2022/07/19 00:28:15;;;;;;;11.82;6.45;;;21.60;67.80;;;;;;4991809;28;20030;-73
2022/07/19 00:30:41;;;;;;;11.13;6.15;;;21.60;67.90;;;;;;4991947;28;20076;-73
2022/07/19 00:33:09;;;;;;;12.88;6.13;;;21.60;68.10;;;;;;4970571;28;20039;-73
2022/07/19 00:35:36;;;;;;;9.57;6.03;;;21.50;68.20;;;;;;4972855;28;20030;-73
2022/07/19 00:38:10;;;;;;;8.20;5.80;;;21.50;68.50;;;;;;4970517;28;20101;-73
2022/07/19 00:40:36;;;;;;;9.18;6.30;;;21.50;68.60;;;;;;4973170;28;20027;-72
2022/07/19 00:43:02;;;;;;;8.63;6.88;;;21.40;68.50;;;;;;4972094;28;20045;-72
2022/07/19 00:45:27;;;;;;;9.30;6.38;;;21.40;68.60;;;;;;4972150;28;20390;-73
2022/07/19 00:47:53;;;;;;;10.68;6.38;;;21.40;68.80;;;;;;4972288;28;20030;-73
2022/07/19 00:50:20;;;;;;;9.25;6.10;;;21.40;68.80;;;;;;4972424;28;20496;-71
2022/07/19 00:52:50;;;;;;;8.43;6.20;;;21.40;69.00;;;;;;4972189;28;20082;-72
2022/07/19 00:55:18;;;;;;;8.85;5.82;;;21.30;69.10;;;;;;4971902;28;20022;-73
2022/07/19 00:57:45;;;;;;;9.93;5.85;;;21.30;69.40;;;;;;4971837;28;20038;-72
2022/07/19 01:00:11;;;;;;;9.02;5.93;;;21.30;69.40;;;;;;4971384;28;20074;-73
2022/07/19 01:02:37;;;;;;;9.38;6.32;;;21.30;69.60;;;;;;4971189;28;20059;-73
2022/07/19 01:05:05;;;;;;;8.10;5.63;;;21.30;69.60;;;;;;4972759;28;20062;-72
2022/07/19 01:07:31;;;;;;;8.77;6.53;;;21.30;69.70;;;;;;4970402;28;20026;-72
2022/07/19 01:09:57;;;;;;;8.30;5.70;;;21.20;69.80;;;;;;4972966;28;20058;-72
2022/07/19 01:12:23;;;;;;;9.30;6.07;;;21.20;70.10;;;;;;4971803;28;20525;-72
2022/07/19 01:14:49;;;;;;;11.70;6.30;;;21.20;70.10;;;;;;4970803;28;20114;-72
2022/07/19 01:17:15;;;;;;;9.02;5.95;;;21.10;70.30;;;;;;4971913;28;20111;-72
2022/07/19 01:19:44;;;;;;;10.38;6.22;;;21.10;70.20;;;;;;4972458;28;20470;-72
2022/07/19 01:22:10;;;;;;;7.88;6.57;;;21.10;70.40;;;;;;4971224;28;20023;-72
2022/07/19 01:24:36;;;;;;;11.50;6.93;;;21.10;70.60;;;;;;4968726;28;20086;-72
2022/07/19 01:27:01;;;;;;;8.77;5.82;;;21.10;70.70;;;;;;4967976;28;20026;-73
2022/07/19 01:29:27;;;;;;;12.93;7.07;;;21.00;70.60;;;;;;4972491;28;20066;-72
2022/07/19 01:31:52;;;;;;;12.85;6.75;;;21.00;70.90;;;;;;4970357;28;20026;-72
2022/07/19 01:34:18;;;;;;;8.80;6.63;;;21.00;71.10;;;;;;4988810;28;20568;-72
2022/07/19 01:36:44;;;;;;;10.10;6.75;;;21.00;70.90;;;;;;4992246;28;20470;-72
2022/07/19 01:39:09;;;;;;;8.35;6.38;;;20.90;70.80;;;;;;4995745;28;20032;-73
2022/07/19 01:41:35;;;;;;;8.98;5.75;;;20.90;71.60;;;;;;4992619;28;20029;-73
2022/07/19 01:44:00;;;;;;;8.70;6.00;;;20.90;71.10;;;;;;4994604;28;20511;-73
2022/07/19 01:46:26;;;;;;;8.23;6.20;;;20.90;71.20;;;;;;4993561;28;20033;-72
2022/07/19 01:48:52;;;;;;;9.80;6.00;;;20.80;71.20;;;;;;4992885;28;20113;-73
2022/07/19 01:51:18;;;;;;;12.48;6.82;;;20.80;71.20;;;;;;4995569;28;20061;-73
2022/07/19 01:53:44;;;;;;;8.95;5.50;;;20.80;71.50;;;;;;4994383;28;20050;-73
2022/07/19 01:56:09;;;;;;;8.68;5.82;;;20.80;71.60;;;;;;4995694;28;20022;-73
2022/07/19 01:58:35;;;;;;;9.13;5.90;;;20.80;71.80;;;;;;4994547;28;20038;-73
2022/07/19 02:01:00;;;;;;;8.40;6.25;;;20.80;72.00;;;;;;5001319;28;20421;-73
2022/07/19 02:03:27;;;;;;;8.73;5.45;;;20.70;72.00;;;;;;5002441;28;20133;-72
2022/07/19 02:05:55;;;;;;;8.02;6.00;;;20.70;72.20;;;;;;4999300;28;20049;-72
2022/07/19 02:08:21;;;;;;;9.77;6.03;;;20.70;72.30;;;;;;4995737;28;20125;-72
2022/07/19 02:10:47;;;;;;;7.82;5.47;;;20.70;72.40;;;;;;4994159;28;20354;-70
2022/07/19 02:13:13;;;;;;;9.27;5.78;;;20.60;72.50;;;;;;4994570;28;20126;-72
2022/07/19 02:15:38;;;;;;;8.80;6.07;;;20.60;72.60;;;;;;4994781;28;20414;-72
2022/07/19 02:18:05;;;;;;;9.48;5.68;;;20.60;72.70;;;;;;4994204;28;20058;-72
2022/07/19 02:20:30;;;;;;;7.15;5.47;;;20.60;72.70;;;;;;4994578;28;20022;-72
2022/07/19 02:22:56;;;;;;;9.65;6.05;;;20.60;72.80;;;;;;4994545;28;20037;-72
2022/07/19 02:25:22;;;;;;;10.20;5.82;;;20.60;72.90;;;;;;4977160;28;20041;-73
2022/07/19 02:27:47;;;;;;;8.18;5.40;;;20.50;73.00;;;;;;4994023;28;20030;-72
2022/07/19 02:30:14;;;;;;;8.77;5.30;;;20.50;72.80;;;;;;4994384;28;20019;-72
2022/07/19 02:32:40;;;;;;;8.15;5.45;;;20.50;72.80;;;;;;4993642;28;20042;-71
2022/07/19 02:35:07;;;;;;;11.13;5.70;;;20.40;73.10;;;;;;4993021;28;20477;-72
2022/07/19 02:37:33;;;;;;;11.25;6.38;;;20.50;73.30;;;;;;4993980;28;20113;-72
2022/07/19 02:39:58;;;;;;;8.95;6.20;;;20.40;73.30;;;;;;4993485;28;20113;-77
2022/07/19 02:42:24;;;;;;;8.05;5.53;;;20.40;73.50;;;;;;4976408;28;20026;-73
2022/07/19 02:44:50;;;;;;;7.28;5.30;;;20.40;73.50;;;;;;4994153;28;20473;-72
2022/07/19 02:47:15;;;;;;;8.10;5.80;;;20.40;73.70;;;;;;4993282;28;20533;-70
2022/07/19 02:49:41;;;;;;;8.50;5.13;;;20.30;73.70;;;;;;4973314;28;20018;-68
2022/07/19 02:52:07;;;;;;;8.02;5.65;;;20.40;73.80;;;;;;4993684;28;20049;-68
2022/07/19 02:54:32;;;;;;;9.05;6.18;;;20.30;73.80;;;;;;4994332;28;20211;-68
2022/07/19 02:56:58;;;;;;;8.38;5.65;;;20.30;73.90;;;;;;4993587;28;20458;-68
2022/07/19 02:59:23;;;;;;;6.35;5.22;;;20.30;74.10;;;;;;4992848;28;20072;-69
2022/07/19 03:01:49;;;;;;;8.57;6.28;;;20.30;74.10;;;;;;4992971;28;20038;-69
2022/07/19 03:04:15;;;;;;;8.02;6.05;;;20.30;74.10;;;;;;4994339;28;20038;-69
2022/07/19 03:06:40;;;;;;;9.85;5.63;;;20.20;74.10;;;;;;4992086;28;20030;-69
2022/07/19 03:09:06;;;;;;;8.65;6.30;;;20.20;74.80;;;;;;4994240;28;20450;-69
2022/07/19 03:11:31;;;;;;;10.43;6.22;;;20.20;74.40;;;;;;4992592;28;20045;-69
2022/07/19 03:13:57;;;;;;;7.90;6.00;;;20.20;74.40;;;;;;4994055;28;20382;-69
2022/07/19 03:16:22;;;;;;;7.20;5.60;;;20.20;74.60;;;;;;4993101;28;20033;-68
2022/07/19 03:18:48;;;;;;;8.13;5.93;;;20.20;74.80;;;;;;4972236;28;20046;-68
2022/07/19 03:21:13;;;;;;;9.02;5.95;;;20.20;74.80;;;;;;4988384;28;20041;-68
2022/07/19 03:23:39;;;;;;;8.75;5.50;;;20.10;74.80;;;;;;4979043;28;20038;-68
2022/07/19 03:26:05;;;;;;;8.80;5.60;;;20.10;75.10;;;;;;4993543;28;20030;-68
2022/07/19 03:28:33;;;;;;;10.40;5.40;;;20.10;75.10;;;;;;4993334;28;20626;-69
2022/07/19 03:30:59;;;;;;;10.85;6.00;;;20.10;75.30;;;;;;4993789;28;20105;-68
2022/07/19 03:33:25;;;;;;;8.68;5.72;;;20.10;75.40;;;;;;4993113;28;20074;-69
2022/07/19 03:35:51;;;;;;;8.85;5.35;;;20.10;75.50;;;;;;4992221;28;20069;-68
2022/07/19 03:38:16;;;;;;;12.38;5.60;;;20.10;75.50;;;;;;4992373;28;20022;-68
2022/07/19 03:40:43;;;;;;;7.90;5.22;;;20.10;75.70;;;;;;4992059;28;20030;-68
2022/07/19 03:43:09;;;;;;;8.55;5.30;;;20.10;75.80;;;;;;4991974;28;20044;-68
2022/07/19 03:45:34;;;;;;;7.78;5.57;;;20.10;75.90;;;;;;4974651;28;20026;-68
2022/07/19 03:48:00;;;;;;;11.77;5.40;;;20.10;76.10;;;;;;4974212;28;20092;-69
2022/07/19 03:50:27;;;;;;;10.23;5.65;;;20.10;76.20;;;;;;4993494;28;20436;-69
2022/07/19 03:52:52;;;;;;;8.73;5.95;;;20.10;76.30;;;;;;4992237;28;20052;-69
2022/07/19 03:55:18;;;;;;;7.75;5.80;;;20.20;76.40;;;;;;4992195;28;20100;-69
2022/07/19 03:57:43;;;;;;;8.98;5.40;;;20.10;76.30;;;;;;4991348;28;20026;-69
2022/07/19 04:00:09;;;;;;;9.23;5.75;;;20.10;76.40;;;;;;4991225;28;20019;-68
2022/07/19 04:02:35;;;;;;;7.32;5.40;;;20.20;76.70;;;;;;4992190;28;20030;-69
2022/07/19 04:05:00;;;;;;;9.20;6.00;;;20.20;76.90;;;;;;4992030;28;20045;-69
2022/07/19 04:07:26;;;;;;;7.88;5.45;;;20.20;76.90;;;;;;4990942;28;20109;-69
2022/07/19 04:09:51;;;;;;;7.85;5.55;;;20.20;77.00;;;;;;4991163;28;20034;-69
2022/07/19 04:12:17;;;;;;;10.65;6.32;;;20.20;77.20;;;;;;4973966;28;20026;-69
2022/07/19 04:14:42;;;;;;;8.18;5.53;;;20.20;77.40;;;;;;4992126;28;20520;-69
2022/07/19 04:17:08;;;;;;;8.75;5.80;;;20.20;77.50;;;;;;4991678;28;20038;-69
2022/07/19 04:19:35;;;;;;;8.27;6.07;;;20.20;77.70;;;;;;4991611;28;20382;-69
2022/07/19 04:22:00;;;;;;;10.07;6.40;;;20.20;77.70;;;;;;4991091;28;20034;-69
2022/07/19 04:24:26;;;;;;;13.40;6.05;;;20.20;77.80;;;;;;4993766;28;20053;-69
2022/07/19 04:26:51;;;;;;;9.52;5.82;;;20.30;77.80;;;;;;4993156;28;20493;-69
2022/07/19 04:29:17;;;;;;;7.50;5.30;;;20.30;77.90;;;;;;4992392;28;20127;-68
2022/07/19 04:31:42;;;;;;;9.77;5.43;;;20.30;78.00;;;;;;4991216;28;20788;-68
2022/07/19 04:34:08;;;;;;;12.27;5.47;;;20.30;78.00;;;;;;4991697;28;20046;-69
2022/07/19 04:36:33;;;;;;;8.15;5.45;;;20.40;78.10;;;;;;4990185;28;20469;-69
2022/07/19 04:38:59;;;;;;;7.45;5.50;;;20.40;78.40;;;;;;4992395;28;20096;-69
2022/07/19 04:41:25;;;;;;;8.75;5.20;;;20.40;78.30;;;;;;4974896;28;20026;-69
2022/07/19 04:43:50;;;;;;;11.40;5.50;;;20.40;78.20;;;;;;4991899;28;20030;-69
2022/07/19 04:46:16;;;;;;;10.05;5.05;;;20.50;78.30;;;;;;4991089;28;20513;-69
2022/07/19 04:48:41;;;;;;;7.63;5.57;;;20.50;78.20;;;;;;4990247;28;20183;-69
2022/07/19 04:51:08;;;;;;;9.95;5.47;;;20.50;78.10;;;;;;4991926;28;20030;-69
2022/07/19 04:53:33;;;;;;;9.95;6.30;;;20.60;78.20;;;;;;4991279;28;20022;-68
2022/07/19 04:55:59;;;;;;;10.35;6.20;;;20.60;78.00;;;;;;4991664;28;20093;-68
2022/07/19 04:58:24;;;;;;;8.52;5.35;;;20.60;78.00;;;;;;4990661;28;20569;-68
2022/07/19 05:00:50;;;;;;;8.60;5.43;;;20.60;77.90;;;;;;4991623;28;20109;-69
2022/07/19 05:03:16;;;;;;;9.45;5.57;;;20.60;77.80;;;;;;4990789;28;20516;-69
2022/07/19 05:05:41;;;;;;;8.98;5.97;;;20.70;77.90;;;;;;4991025;28;20030;-69
2022/07/19 05:08:07;;;;;;;9.20;5.95;;;20.80;77.90;;;;;;4982506;28;20721;-68
2022/07/19 05:10:33;;;;;;;9.82;6.07;;;20.80;77.70;;;;;;4976499;28;20556;-69
2022/07/19 05:12:58;;;;;;;16.90;6.53;;;20.90;77.80;;;;;;4993623;28;20058;-69
2022/07/19 05:15:24;;;;;;;13.45;6.63;;;20.90;77.80;;;;;;4994965;28;20113;-69
2022/07/19 05:17:50;;;;;;;10.45;5.90;;;20.90;77.50;;;;;;4994684;28;20073;-69
2022/07/19 05:20:16;;;;;;;13.50;7.25;;;21.00;77.70;;;;;;4995837;28;20046;-69
2022/07/19 05:22:42;;;;;;;15.45;7.10;;;21.00;77.50;;;;;;4995300;28;20045;-69
2022/07/19 05:25:09;;;;;;;14.48;6.30;;;21.10;77.40;;;;;;4987641;28;20390;-70
2022/07/19 05:27:36;;;;;;;12.80;6.70;;;21.10;77.30;;;;;;4984685;28;20531;-70
2022/07/19 05:30:04;;;;;;;11.18;7.18;;;21.10;76.90;;;;;;4984046;28;20073;-69
2022/07/19 05:32:30;;;;;;;10.13;5.63;;;21.20;76.80;;;;;;4994716;28;20080;-69
2022/07/19 05:34:55;;;;;;;8.38;5.75;;;21.30;76.00;;;;;;4994397;28;20112;-69
2022/07/19 05:37:21;;;;;;;11.50;4.90;;;21.40;75.60;;;;;;4988742;28;20038;-70
2022/07/19 05:39:46;;;;;;;9.07;4.53;;;21.40;74.30;;;;;;4981480;28;20027;-70
2022/07/19 05:42:12;;;;;;;8.13;4.97;;;21.60;73.00;;;;;;4981756;28;20730;-71
2022/07/19 05:44:38;;;;;;;8.73;4.60;;;21.60;72.90;;;;;;4978965;28;20045;-70
2022/07/19 05:47:03;;;;;;;11.57;4.40;;;21.70;72.00;;;;;;4991122;28;20405;-69
2022/07/19 05:49:29;;;;;;;10.68;4.40;;;21.80;71.00;;;;;;4992014;28;20034;-69
2022/07/19 05:51:54;;;;;;;6.43;4.20;;;21.90;71.30;;;;;;4992465;28;20022;-69
2022/07/19 05:54:20;;;;;;;7.80;4.75;;;21.90;71.40;;;;;;4993532;28;20027;-69
2022/07/19 05:56:46;;;;;;;7.75;3.85;;;22.00;70.90;;;;;;4990090;28;20496;-69
2022/07/19 05:59:11;;;;;;;8.48;4.22;;;22.10;70.60;;;;;;4994075;28;20121;-69
2022/07/19 06:01:37;;;;;;;6.32;4.72;;;22.10;70.70;;;;;;4992610;28;20069;-69
2022/07/19 06:04:03;;;;;;;6.82;3.92;;;22.20;69.70;;;;;;4993293;28;20504;-69
2022/07/19 06:06:31;;;;;;;7.85;4.07;;;22.30;69.70;;;;;;4992436;28;20034;-69
2022/07/19 06:08:57;;;;;;;6.47;3.40;;;22.40;69.70;;;;;;4992928;28;20030;-69
2022/07/19 06:11:23;;;;;;;7.22;3.67;;;22.40;69.20;;;;;;4990345;28;20042;-68
2022/07/19 06:13:50;;;;;;;5.38;3.28;;;22.50;68.50;;;;;;4993810;28;20036;-69
2022/07/19 06:16:16;;;;;;;6.28;4.30;;;22.60;68.00;;;;;;4994000;28;20532;-69
2022/07/19 06:18:42;;;;;;;5.35;3.50;;;22.70;67.90;;;;;;4991917;28;20035;-69
2022/07/19 06:21:13;;;;;;;7.88;4.10;;;22.70;67.40;;;;;;4992752;28;20049;-68
2022/07/19 06:23:39;;;;;;;7.28;3.83;;;22.80;67.10;;;;;;4992168;28;20077;-69
2022/07/19 06:26:06;;;;;;;5.82;3.67;;;22.90;67.30;;;;;;4978552;28;20044;-69
2022/07/19 06:28:31;;;;;;;7.55;3.47;;;23.00;66.70;;;;;;4975268;28;20084;-69
2022/07/19 06:30:57;;;;;;;6.13;3.33;;;23.10;66.30;;;;;;4992351;28;20027;-69
2022/07/19 06:33:22;;;;;;;4.75;3.15;;;23.20;66.00;;;;;;4991925;28;20046;-69
2022/07/19 06:35:48;;;;;;;6.35;3.47;;;23.20;65.70;;;;;;4990833;28;20458;-69
2022/07/19 06:38:16;;;;;;;6.13;3.25;;;23.30;65.40;;;;;;4974049;28;20077;-70
2022/07/19 06:40:42;;;;;;;4.55;3.00;;;23.40;64.70;;;;;;4975860;28;20366;-70
2022/07/19 06:43:08;;;;;;;7.82;3.20;;;23.50;64.40;;;;;;4993254;28;20077;-69
2022/07/19 06:45:33;;;;;;;7.90;3.75;;;23.60;63.80;;;;;;4994996;28;20038;-68
2022/07/19 06:47:59;;;;;;;7.82;3.63;;;23.70;63.50;;;;;;4995086;28;20065;-67
2022/07/19 06:50:25;;;;;;;4.57;3.00;;;23.70;63.40;;;;;;4992752;28;20046;-69
2022/07/19 06:52:50;;;;;;;7.85;3.45;;;23.80;63.30;;;;;;4991855;28;20522;-69
2022/07/19 06:55:16;;;;;;;5.32;3.30;;;24.00;63.10;;;;;;4992665;28;20037;-69
2022/07/19 06:57:42;;;;;;;8.63;3.35;;;24.00;62.70;;;;;;4991262;28;20076;-69
2022/07/19 07:00:09;;;;;;;6.18;3.42;;;24.10;62.80;;;;;;4980301;28;20022;-69
2022/07/19 07:02:38;;;;;;;8.20;3.50;;;24.20;62.20;;;;;;4991716;28;20494;-69
2022/07/19 07:05:06;;;;;;;4.78;3.00;;;24.30;61.70;;;;;;4991862;28;20041;-69
2022/07/19 07:07:31;;;;;;;8.75;3.83;;;24.40;61.20;;;;;;4989572;28;20470;-69
2022/07/19 07:09:57;;;;;;;9.07;3.53;;;24.50;61.00;;;;;;4991695;28;20037;-70
2022/07/19 07:12:22;;;;;;;7.13;3.50;;;24.60;60.70;;;;;;4992677;28;20031;-70
2022/07/19 07:14:48;;;;;;;5.57;3.13;;;24.70;60.40;;;;;;4992005;28;20022;-70
2022/07/19 07:17:14;;;;;;;5.88;3.20;;;24.70;59.60;;;;;;4985202;28;20809;-70
2022/07/19 07:19:39;;;;;;;5.60;3.17;;;24.90;59.70;;;;;;4975649;28;20089;-70
2022/07/19 07:22:05;;;;;;;10.60;3.20;;;24.90;59.40;;;;;;4991603;28;20045;-70
2022/07/19 07:24:31;;;;;;;14.27;3.72;;;25.10;59.20;;;;;;4992153;28;20034;-70
2022/07/19 07:26:56;;;;;;;6.93;3.20;;;25.10;59.20;;;;;;4992011;28;20065;-70
2022/07/19 07:29:22;;;;;;;8.38;3.20;;;25.20;59.10;;;;;;4992779;28;20026;-70
2022/07/19 07:31:47;;;;;;;8.43;3.28;;;25.30;59.10;;;;;;4991744;28;20026;-70
2022/07/19 07:34:13;;;;;;;6.00;2.88;;;25.40;58.70;;;;;;4990258;28;20404;-70
2022/07/19 07:36:39;;;;;;;5.32;2.72;;;25.50;58.40;;;;;;4991127;28;20062;-69
2022/07/19 07:39:04;;;;;;;5.93;3.25;;;25.50;57.60;;;;;;4991717;28;20038;-70
2022/07/19 07:41:30;;;;;;;6.25;3.58;;;25.60;57.70;;;;;;4991375;28;20465;-70
2022/07/19 07:43:55;;;;;;;9.93;4.18;;;25.70;57.50;;;;;;4992203;28;20065;-68
2022/07/19 07:46:21;;;;;;;7.95;3.00;;;25.80;57.20;;;;;;4992506;28;20029;-68
2022/07/19 07:48:46;;;;;;;6.75;3.75;;;25.90;57.20;;;;;;4991375;28;20027;-69
2022/07/19 07:51:12;;;;;;;9.63;3.13;;;26.00;56.90;;;;;;4992621;28;20096;-69
2022/07/19 07:53:37;;;;;;;7.07;3.78;;;26.10;56.20;;;;;;4973406;28;20069;-69
2022/07/19 07:56:03;;;;;;;8.02;3.28;;;26.10;56.00;;;;;;4981606;28;20049;-68
2022/07/19 07:58:30;;;;;;;8.07;3.20;;;26.20;55.60;;;;;;4991141;28;20033;-69
2022/07/19 08:00:55;;;;;;;7.25;2.83;;;26.30;55.40;;;;;;4991885;28;20037;-68
2022/07/19 08:03:21;;;;;;;6.57;3.25;;;26.40;55.40;;;;;;4990312;28;20030;-67
2022/07/19 08:05:49;;;;;;;5.78;3.30;;;26.50;55.30;;;;;;4973465;28;20031;-67
2022/07/19 08:08:15;;;;;;;9.63;3.22;;;26.50;55.50;;;;;;4989946;28;20697;-68
2022/07/19 08:10:41;;;;;;;7.10;3.10;;;26.60;55.00;;;;;;4991776;28;20026;-68
2022/07/19 08:13:07;;;;;;;5.88;3.00;;;26.70;54.50;;;;;;4990341;28;20417;-68
2022/07/19 08:15:34;;;;;;;9.70;3.28;;;26.80;54.50;;;;;;4992673;28;20045;-68
2022/07/19 08:17:59;;;;;;;9.23;3.10;;;26.90;54.20;;;;;;4990523;28;20061;-68
2022/07/19 08:20:25;;;;;;;4.85;2.80;;;27.00;54.00;;;;;;4978946;28;20466;-68
2022/07/19 08:22:51;;;;;;;10.10;3.53;;;27.10;53.70;;;;;;4990001;28;20018;-68
2022/07/19 08:25:16;;;;;;;4.85;2.83;;;27.20;53.70;;;;;;4991149;28;20042;-67
2022/07/19 08:27:43;;;;;;;5.97;3.35;;;27.30;53.90;;;;;;4987728;28;20034;-69
2022/07/19 08:30:10;;;;;;;6.32;3.05;;;27.40;53.10;;;;;;4992478;28;20034;-68
2022/07/19 08:32:36;;;;;;;5.90;2.88;;;27.50;53.10;;;;;;4986601;28;20050;-67
2022/07/19 08:35:02;;;;;;;7.47;2.75;;;27.70;53.20;;;;;;4987577;28;20034;-69
2022/07/19 08:37:28;;;;;;;7.10;3.25;;;27.70;52.70;;;;;;4985488;28;20052;-69
2022/07/19 08:39:54;;;;;;;6.47;3.63;;;27.80;52.10;;;;;;4990906;28;20078;-68
2022/07/19 08:42:20;;;;;;;4.28;2.47;;;27.90;52.10;;;;;;4989138;28;20030;-69
2022/07/19 08:44:50;;;;;;;3.90;2.35;;;28.00;51.60;;;;;;4974505;28;20061;-67
2022/07/19 08:47:17;;;;;;;10.05;3.20;;;28.10;51.70;;;;;;4990255;28;20053;-67
2022/07/19 08:49:44;;;;;;;7.28;3.28;;;28.20;51.80;;;;;;4991985;28;20030;-67
2022/07/19 08:52:11;;;;;;;5.50;3.17;;;28.30;51.60;;;;;;4989676;28;21347;-69
2022/07/19 08:54:37;;;;;;;6.45;2.60;;;28.40;50.70;;;;;;4990579;28;20030;-68
2022/07/19 08:59:47;;;;;;;;;;;28.50;50.80;;;;;;4989912;28;20041;-69
2022/07/19 09:02:14;;;;;;;6.88;3.38;;;28.60;52.10;;;;;;4989152;28;19909;-68
2022/07/19 09:04:39;;;;;;;10.15;3.15;;;28.70;50.90;;;;;;4997014;28;20049;-68
2022/07/19 09:07:05;;;;;;;4.85;2.72;;;28.70;50.40;;;;;;4996150;28;20022;-67
2022/07/19 09:09:34;;;;;;;4.85;2.67;;;28.90;50.50;;;;;;4994481;28;20171;-67
2022/07/19 09:12:02;;;;;;;5.95;3.03;;;29.00;50.20;;;;;;4995037;28;20037;-68
2022/07/19 09:14:31;;;;;;;4.85;2.53;;;29.10;49.10;;;;;;4991608;28;20066;-67
2022/07/19 09:17:06;;;;;;;7.55;2.50;;;29.20;49.40;;;;;;4990892;28;20034;-67
2022/07/19 09:19:43;;;;;;;4.30;2.53;;;29.30;49.00;;;;;;4974481;28;20081;-68
2022/07/19 09:22:15;;;;;;;5.35;2.22;;;29.30;49.20;;;;;;4991404;28;20069;-68
2022/07/19 09:24:46;;;;;;;5.43;2.47;;;29.40;49.40;;;;;;4991681;28;20389;-68
2022/07/19 09:27:14;;;;;;;4.93;2.70;;;29.50;47.90;;;;;;4990976;28;20066;-68
2022/07/19 09:29:42;;;;;;;5.15;2.25;;;29.60;47.60;;;;;;4991136;28;20037;-67
2022/07/19 09:32:14;;;;;;;4.60;2.75;;;29.80;48.10;;;;;;4990400;28;20420;-68
2022/07/19 09:34:52;;;;;;;4.82;2.33;;;29.80;47.70;;;;;;4992191;28;20050;-68
2022/07/19 09:37:27;;;;;;;3.80;2.70;;;29.90;47.80;;;;;;4991125;28;20031;-68
2022/07/19 09:39:58;;;;;;;5.60;2.90;;;30.00;47.70;;;;;;4990277;28;20088;-69
2022/07/19 09:42:40;;;;;;;5.13;2.42;;;30.00;47.60;;;;;;4991112;28;20030;-68
2022/07/19 09:45:10;;;;;;;4.97;2.60;;;30.10;47.60;;;;;;4991999;28;20042;-68
2022/07/19 09:47:37;;;;;;;8.10;2.60;;;30.20;47.20;;;;;;4990241;28;20073;-68
2022/07/19 09:50:06;;;;;;;5.07;2.55;;;30.30;47.60;;;;;;4973865;28;20077;-68
2022/07/19 09:52:34;;;;;;;8.35;2.70;;;30.40;47.10;;;;;;4991028;28;20027;-68
2022/07/19 09:55:03;;;;;;;4.65;2.55;;;30.40;47.70;;;;;;4991831;28;20045;-68
2022/07/19 09:57:40;;;;;;;4.38;2.58;;;30.50;46.70;;;;;;4991610;28;20026;-68
2022/07/19 10:00:09;;;;;;;5.28;3.15;;;30.50;46.50;;;;;;4994494;28;20401;-68
2022/07/19 10:02:36;;;;;;;8.25;2.95;;;30.60;46.40;;;;;;4994173;28;20065;-68
2022/07/19 10:05:03;;;;;;;4.38;2.95;;;30.70;46.30;;;;;;4995187;28;20046;-68
2022/07/19 10:07:30;;;;;;;8.30;3.00;;;30.80;46.40;;;;;;4994227;28;20050;-68
2022/07/19 10:09:56;;;;;;;4.78;2.90;;;30.80;45.80;;;;;;4995161;28;20055;-68
2022/07/19 10:12:22;;;;;;;3.72;2.40;;;30.90;45.70;;;;;;4994126;28;20037;-68
2022/07/19 10:14:48;;;;;;;4.18;2.50;;;30.90;46.00;;;;;;4994897;28;20421;-68
2022/07/19 10:17:26;;;;;;;3.97;2.25;;;30.90;45.60;;;;;;4991489;28;20493;-69
2022/07/19 10:19:52;;;;;;;4.05;2.13;;;31.10;45.60;;;;;;4993996;28;20026;-68
2022/07/19 10:22:26;;;;;;;3.72;2.55;;;31.10;45.20;;;;;;4992938;28;20026;-68
2022/07/19 10:24:53;;;;;;;7.22;3.58;;;31.20;44.10;;;;;;4994576;28;20035;-68
2022/07/19 10:27:24;;;;;;;4.50;2.45;;;31.20;44.10;;;;;;4989544;28;20113;-68
2022/07/19 10:30:11;;;;;;;5.18;2.72;;;31.30;44.70;;;;;;4994564;28;20038;-68
2022/07/19 10:32:39;;;;;;;5.40;2.97;;;31.30;44.10;;;;;;4953465;28;20390;-68
2022/07/19 10:35:18;;;;;;;5.32;2.92;;;31.40;44.40;;;;;;4993774;28;20050;-68
2022/07/19 10:37:46;;;;;;;4.50;2.70;;;31.50;43.90;;;;;;4993209;28;20026;-68
2022/07/19 10:40:12;;;;;;;3.58;2.60;;;31.50;43.60;;;;;;4994515;28;20077;-68
2022/07/19 10:43:08;;;;;;;4.45;2.47;;;31.60;43.30;;;;;;4993591;28;20030;-68
2022/07/19 10:45:35;;;;;;;3.95;2.65;;;31.60;43.50;;;;;;4994578;28;20069;-68
2022/07/19 10:48:05;;;;;;;3.47;2.05;;;31.70;42.90;;;;;;4993532;28;20400;-68
2022/07/19 10:50:51;;;;;;;8.13;3.00;;;31.70;42.70;;;;;;4993383;28;20034;-68
2022/07/19 10:53:41;;;;;;;4.95;2.47;;;31.80;43.10;;;;;;4993455;28;20038;-68
2022/07/19 10:56:23;;;;;;;5.05;2.42;;;31.90;43.10;;;;;;4993602;28;20034;-68
2022/07/19 10:58:56;;;;;;;4.13;2.45;;;32.00;42.90;;;;;;4992473;28;20105;-68
2022/07/19 11:01:23;;;;;;;4.47;2.80;;;32.00;42.80;;;;;;4994293;28;20038;-68
2022/07/19 11:03:50;;;;;;;5.90;2.55;;;32.10;43.20;;;;;;4993600;28;20081;-68
2022/07/19 11:06:26;;;;;;;4.57;2.67;;;32.10;42.70;;;;;;4993511;28;20034;-68
2022/07/19 11:08:56;;;;;;;3.72;2.55;;;32.20;42.60;;;;;;4974744;28;20034;-68
2022/07/19 11:11:23;;;;;;;3.33;2.00;;;32.30;42.10;;;;;;4994033;28;20042;-68
2022/07/19 11:13:52;;;;;;;4.68;2.20;;;32.30;41.70;;;;;;4993299;28;20077;-68
2022/07/19 11:16:19;;;;;;;4.25;2.40;;;32.40;40.70;;;;;;4994175;28;20433;-68
2022/07/19 11:18:45;;;;;;;5.40;2.40;;;32.50;40.80;;;;;;4992587;28;20529;-68
2022/07/19 11:21:13;;;;;;;6.80;2.83;;;32.50;40.70;;;;;;4993778;28;20022;-68
2022/07/19 11:23:39;;;;;;;4.07;2.30;;;32.50;41.00;;;;;;4992609;28;20101;-68
2022/07/19 11:26:14;;;;;;;3.33;2.15;;;32.50;40.80;;;;;;4997461;28;20057;-68
2022/07/19 11:28:42;;;;;;;5.55;2.50;;;32.60;40.60;;;;;;4993176;28;20026;-69
2022/07/19 11:31:17;;;;;;;4.15;2.60;;;32.60;40.40;;;;;;4993763;28;20026;-68
2022/07/19 11:33:45;;;;;;;3.70;2.42;;;32.50;40.00;;;;;;4992250;28;20078;-68
2022/07/19 11:36:12;;;;;;;4.15;2.17;;;32.50;39.70;;;;;;4989789;28;20030;-68
2022/07/19 11:38:43;;;;;;;4.20;2.55;;;32.50;39.80;;;;;;4992261;28;20034;-68
2022/07/19 11:41:18;;;;;;;5.00;2.78;;;32.50;39.90;;;;;;4988716;28;20366;-69
2022/07/19 11:43:44;;;;;;;4.43;2.88;;;32.60;39.90;;;;;;4977339;28;20047;-68
2022/07/19 11:46:10;;;;;;;3.90;2.30;;;32.60;39.90;;;;;;4978382;28;20030;-68
2022/07/19 11:48:36;;;;;;;4.85;2.45;;;32.70;40.60;;;;;;4992342;28;20053;-67
2022/07/19 11:51:08;;;;;;;4.68;2.70;;;32.70;39.80;;;;;;4991868;28;20037;-68
2022/07/19 11:53:36;;;;;;;6.22;2.35;;;32.70;40.40;;;;;;4992603;28;20434;-68
2022/07/19 11:56:03;;;;;;;5.00;2.67;;;32.70;39.90;;;;;;4991355;28;20146;-69
2022/07/19 11:58:30;;;;;;;3.90;2.50;;;32.70;39.90;;;;;;4987361;28;20433;-70
2022/07/19 12:01:04;;;;;;;3.47;2.50;;;32.70;40.20;;;;;;4977422;28;20040;-69
2022/07/19 12:03:31;;;;;;;5.82;3.15;;;32.80;39.70;;;;;;4985400;28;20173;-68
2022/07/19 12:06:05;;;;;;;6.22;2.67;;;32.80;39.70;;;;;;4984373;28;20030;-69
2022/07/19 12:08:43;;;;;;;5.13;2.22;;;32.80;39.20;;;;;;4987215;28;20120;-68
2022/07/19 12:11:16;;;;;;;3.88;2.33;;;32.80;39.10;;;;;;4986057;28;20037;-68
2022/07/19 12:13:42;;;;;;;4.78;2.58;;;32.90;39.60;;;;;;4983804;28;20117;-68
2022/07/19 12:16:10;;;;;;;6.07;2.70;;;32.90;39.30;;;;;;4983489;28;20149;-69
2022/07/19 12:18:56;;;;;;;4.30;2.80;;;32.90;39.30;;;;;;4987067;28;20030;-69
2022/07/19 12:21:28;;;;;;;5.28;2.88;;;33.00;39.60;;;;;;4985217;28;20030;-69
2022/07/19 12:24:23;;;;;;;7.85;2.95;;;33.10;39.20;;;;;;4987359;28;20043;-69
2022/07/19 12:26:54;;;;;;;3.55;2.45;;;33.20;39.50;;;;;;4981846;28;20099;-70
2022/07/19 12:29:33;;;;;;;3.97;2.50;;;33.30;39.30;;;;;;4991817;28;20077;-70
2022/07/19 12:32:00;;;;;;;5.60;2.60;;;33.30;39.90;;;;;;4992706;28;20474;-70
2022/07/19 12:34:27;;;;;;;7.13;2.97;;;33.50;39.70;;;;;;4991780;28;20377;-70
2022/07/19 12:36:53;;;;;;;4.03;2.88;;;33.50;39.40;;;;;;4990982;28;20026;-70
2022/07/19 12:39:19;;;;;;;6.07;3.00;;;33.60;39.80;;;;;;4992418;28;20068;-70
2022/07/19 12:41:53;;;;;;;4.30;3.35;;;33.70;39.80;;;;;;4992176;28;20054;-70
2022/07/19 12:44:19;;;;;;;5.38;3.15;;;33.80;39.40;;;;;;4992387;28;20104;-71
2022/07/19 12:46:44;;;;;;;4.45;2.88;;;33.80;39.10;;;;;;4991377;28;20019;-69
2022/07/19 12:49:10;;;;;;;5.07;2.70;;;33.90;39.20;;;;;;4992212;28;20042;-69